createdAt,value
2022-08-01T00:54:30.332Z,99832.50
2022-08-01T00:58:02.526Z,99835.36
2022-08-01T01:20:13.747Z,99839.02
2022-08-01T02:37:20.649Z,99839.91
2022-08-01T02:41:06.794Z,99836.64
2022-08-01T02:50:23.329Z,99841.83
2022-08-01T02:59:54.433Z,99842.89
2022-08-01T03:03:43.615Z,99844.38
2022-08-01T03:06:48.703Z,99845.92
2022-08-01T03:13:34.358Z,99847.33
2022-08-01T03:16:48.794Z,99843.89
2022-08-01T03:29:53.463Z,99843.95
2022-08-01T03:33:04.966Z,99846.70
2022-08-01T03:36:53.649Z,99846.95
2022-08-01T03:40:56.996Z,99851.03
2022-08-01T03:44:46.641Z,99856.22
2022-08-01T03:47:59.522Z,99850.91
2022-08-01T03:51:24.439Z,99852.77
2022-08-01T03:54:47.122Z,99847.25
2022-08-01T03:58:08.276Z,99858.14
2022-08-01T04:01:47.878Z,99852.95
2022-08-01T04:05:08.289Z,99855.33
2022-08-01T04:08:09.843Z,99856.67
2022-08-01T04:11:20.196Z,99860.56
2022-08-01T04:14:35.032Z,99868.49
2022-08-01T04:17:53.040Z,99867.31
2022-08-01T04:21:17.305Z,99869.04
2022-08-01T04:24:57.192Z,99867.56
2022-08-01T04:28:13.118Z,99869.66
2022-08-01T04:31:28.235Z,99864.11
2022-08-01T04:34:54.452Z,99864.48
2022-08-01T04:38:11.691Z,99859.17
2022-08-01T04:41:50.774Z,99864.25
2022-08-01T04:45:04.356Z,99865.63
2022-08-01T04:48:12.585Z,99865.54
2022-08-01T04:54:34.363Z,99865.79
2022-08-01T04:57:46.134Z,99865.84
2022-08-01T05:01:11.448Z,99871.55
2022-08-01T05:04:28.947Z,99873.41
2022-08-01T05:07:52.111Z,99875.86
2022-08-01T05:11:11.157Z,99880.49
2022-08-01T05:14:43.778Z,99880.54
2022-08-01T05:18:17.281Z,99880.53
2022-08-01T05:24:40.182Z,99874.05
2022-08-01T05:27:41.809Z,99877.43
2022-08-01T05:30:55.040Z,99874.55
2022-08-01T05:34:24.294Z,99875.05
2022-08-01T05:37:15.453Z,99877.43
2022-08-01T05:40:16.662Z,99877.40
2022-08-01T05:43:45.967Z,99883.30
2022-08-01T05:47:33.303Z,99880.24
2022-08-01T05:50:57.983Z,99881.42
2022-08-01T05:54:48.080Z,99881.15
2022-08-01T05:58:14.160Z,99879.80
2022-08-01T06:01:05.901Z,99880.77
2022-08-01T06:03:57.711Z,99879.84
2022-08-01T06:06:40.941Z,99878.52
2022-08-01T06:09:21.457Z,99884.58
2022-08-01T06:12:13.692Z,99887.16
2022-08-01T06:15:19.649Z,99888.54
2022-08-01T06:18:16.549Z,99889.19
2022-08-01T06:21:27.600Z,99881.43
2022-08-01T06:24:31.238Z,99881.02
2022-08-01T06:28:00.565Z,99885.55
2022-08-01T06:30:45.333Z,99887.02
2022-08-01T06:34:06.406Z,99886.79
2022-08-01T06:37:00.400Z,99886.92
2022-08-01T06:40:37.226Z,99890.77
2022-08-01T06:43:50.646Z,99888.08
2022-08-01T06:47:01.948Z,99890.68
2022-08-01T06:50:49.509Z,99890.90
2022-08-01T06:53:24.891Z,99891.25
2022-08-01T06:56:50.715Z,99888.30
2022-08-01T06:59:54.133Z,99894.95
2022-08-01T07:02:30.350Z,99889.73
2022-08-01T07:05:05.584Z,99888.54
2022-08-01T07:07:35.488Z,99887.42
2022-08-01T07:10:33.990Z,99886.34
2022-08-01T07:13:06.454Z,99881.61
2022-08-01T07:15:56.668Z,99876.51
2022-08-01T07:18:28.594Z,99879.42
2022-08-01T07:21:38.950Z,99879.09
2022-08-01T07:24:14.145Z,99876.33
2022-08-01T07:26:53.617Z,99878.47
2022-08-01T07:29:47.602Z,99878.27
2022-08-01T07:32:38.673Z,99875.65
2022-08-01T07:35:12.125Z,99879.59
2022-08-01T07:37:49.137Z,99875.19
2022-08-01T07:40:22.365Z,99879.41
2022-08-01T07:42:52.996Z,99876.20
2022-08-01T07:45:25.106Z,99879.15
2022-08-01T07:48:03.965Z,99882.52
2022-08-01T07:50:39.338Z,99880.66
2022-08-01T07:53:08.299Z,99875.84
2022-08-01T07:55:37.282Z,99872.63
2022-08-01T07:58:05.252Z,99871.77
2022-08-01T08:00:35.907Z,99873.60
2022-08-01T08:03:03.697Z,99878.45
2022-08-01T08:05:57.666Z,99873.86
2022-08-01T08:08:57.074Z,99875.63
2022-08-01T08:12:28.347Z,99878.79
2022-08-01T08:16:05.354Z,99877.84
2022-08-01T08:19:20.655Z,99879.48
2022-08-01T08:26:21.066Z,99887.69
2022-08-01T08:29:20.257Z,99885.44
2022-08-01T08:36:31.698Z,99885.88
2022-08-01T08:39:04.326Z,99879.69
2022-08-01T08:42:02.855Z,99880.35
2022-08-01T08:44:43.819Z,99885.36
2022-08-01T08:47:22.209Z,99883.08
2022-08-01T08:53:44.858Z,99887.33
2022-08-01T08:56:40.224Z,99888.45
2022-08-01T08:59:11.539Z,99896.52
2022-08-01T09:01:50.297Z,99891.69
2022-08-01T09:04:41.893Z,99896.92
2022-08-01T09:08:21.622Z,99894.20
2022-08-01T09:10:55.041Z,99895.83
2022-08-01T09:13:28.088Z,99895.89
2022-08-01T09:16:06.493Z,99897.67
2022-08-01T09:19:16.038Z,99900.08
2022-08-01T09:22:33.749Z,99898.66
2022-08-01T09:25:43.726Z,99900.77
2022-08-01T09:33:21.993Z,99903.81
2022-08-01T09:35:59.153Z,99900.52
2022-08-01T09:38:40.988Z,99896.21
2022-08-01T09:41:48.648Z,99904.54
2022-08-01T09:44:19.388Z,99905.72
2022-08-01T09:47:15.615Z,99904.35
2022-08-01T09:49:51.684Z,99901.00
2022-08-01T09:52:25.847Z,99898.70
2022-08-01T09:55:00.976Z,99905.02
2022-08-01T09:57:31.455Z,99901.89
2022-08-01T10:00:02.280Z,99902.50
2022-08-01T10:02:41.461Z,99897.81
2022-08-01T10:05:20.778Z,99902.05
2022-08-01T10:08:07.790Z,99900.15
2022-08-01T10:10:40.997Z,99900.94
2022-08-01T10:13:11.784Z,99901.75
2022-08-01T10:15:50.396Z,99905.66
2022-08-01T10:18:26.123Z,99907.34
2022-08-01T10:20:56.407Z,99906.42
2022-08-01T10:23:40.631Z,99906.36
2022-08-01T10:26:15.796Z,99906.61
2022-08-01T10:28:50.079Z,99906.75
2022-08-01T10:31:30.908Z,99898.31
2022-08-01T10:34:02.026Z,99899.21
2022-08-01T10:36:33.532Z,99896.85
2022-08-01T10:39:14.540Z,99902.41
2022-08-01T10:41:52.864Z,99894.54
2022-08-01T10:44:24.977Z,99888.33
2022-08-01T10:47:01.315Z,99888.81
2022-08-01T10:49:36.070Z,99889.89
2022-08-01T10:52:07.717Z,99881.92
2022-08-01T10:54:52.461Z,99882.40
2022-08-01T10:57:27.514Z,99875.96
2022-08-01T11:00:03.317Z,99870.95
2022-08-01T11:02:45.473Z,99865.54
2022-08-01T11:05:28.452Z,99872.00
2022-08-01T11:08:22.614Z,99869.70
2022-08-01T11:11:04.444Z,99876.39
2022-08-01T11:13:59.215Z,99872.08
2022-08-01T11:16:38.871Z,99871.23
2022-08-01T11:19:18.005Z,99869.50
2022-08-01T11:21:57.551Z,99864.53
2022-08-01T11:24:51.032Z,99866.58
2022-08-01T11:27:24.137Z,99874.73
2022-08-01T11:30:32.773Z,99869.45
2022-08-01T11:33:11.648Z,99866.48
2022-08-01T11:36:12.948Z,99867.32
2022-08-01T11:39:17.488Z,99867.42
2022-08-01T11:42:35.086Z,99871.52
2022-08-01T11:45:06.033Z,99865.66
2022-08-01T11:48:18.442Z,99867.27
2022-08-01T11:51:02.046Z,99862.34
2022-08-01T11:53:36.758Z,99869.59
2022-08-01T11:56:09.622Z,99864.38
2022-08-01T11:58:45.267Z,99860.02
2022-08-01T12:01:14.596Z,99861.11
2022-08-01T12:03:46.012Z,99865.32
2022-08-01T12:06:14.549Z,99863.63
2022-08-01T12:08:44.711Z,99868.00
2022-08-01T12:11:15.263Z,99863.95
2022-08-01T12:13:46.080Z,99869.94
2022-08-01T12:16:15.801Z,99873.29
2022-08-01T12:18:49.237Z,99871.70
2022-08-01T12:21:20.177Z,99866.81
2022-08-01T12:24:05.537Z,99866.80
2022-08-01T12:26:43.430Z,99848.45
2022-08-01T12:29:33.415Z,99849.23
2022-08-01T12:32:02.858Z,99862.41
2022-08-01T12:34:34.697Z,99860.27
2022-08-01T12:37:03.972Z,99857.91
2022-08-01T12:39:40.292Z,99866.16
2022-08-01T12:42:11.283Z,99873.15
2022-08-01T12:44:41.062Z,99868.73
2022-08-01T12:47:11.855Z,99867.63
2022-08-01T12:49:42.950Z,99874.29
2022-08-01T12:52:13.381Z,99877.13
2022-08-01T12:55:09.851Z,99874.91
2022-08-01T12:57:40.357Z,99873.73
2022-08-01T13:00:10.628Z,99872.44
2022-08-01T13:02:42.544Z,99871.11
2022-08-01T13:05:13.082Z,99873.68
2022-08-01T13:07:52.541Z,99869.73
2022-08-01T13:10:31.503Z,99873.89
2022-08-01T13:17:42.944Z,99878.88
2022-08-01T13:20:11.226Z,99876.73
2022-08-01T13:22:41.271Z,99872.48
2022-08-01T13:25:14.585Z,99869.88
2022-08-01T13:27:52.123Z,99867.72
2022-08-01T13:30:23.681Z,99868.44
2022-08-01T13:33:02.346Z,99873.59
2022-08-01T13:35:31.241Z,99872.44
2022-08-01T13:38:01.395Z,99874.52
2022-08-01T13:40:32.389Z,99874.05
2022-08-01T13:43:00.041Z,99874.18
2022-08-01T13:45:29.061Z,99869.86
2022-08-01T13:48:04.220Z,99875.09
2022-08-01T13:50:43.275Z,99871.67
2022-08-01T13:53:12.620Z,99875.25
2022-08-01T13:55:41.441Z,99876.06
2022-08-01T13:58:10.705Z,99880.09
2022-08-01T14:00:39.991Z,99885.71
2022-08-01T14:03:10.684Z,99879.17
2022-08-01T14:05:38.966Z,99880.23
2022-08-01T14:08:07.831Z,99886.38
2022-08-01T14:10:36.483Z,99886.02
2022-08-01T14:13:04.244Z,99889.45
2022-08-01T14:15:39.791Z,99889.87
2022-08-01T14:18:10.623Z,99890.16
2022-08-01T14:20:42.972Z,99880.09
2022-08-01T14:23:14.030Z,99884.93
2022-08-01T14:26:04.184Z,99885.77
2022-08-01T14:28:34.767Z,99890.52
2022-08-01T14:31:04.210Z,99888.52
2022-08-01T14:33:32.596Z,99884.83
2022-08-01T14:36:07.703Z,99887.34
2022-08-01T14:38:50.377Z,99893.38
2022-08-01T14:41:23.079Z,99899.38
2022-08-01T14:43:57.333Z,99901.86
2022-08-01T14:46:26.061Z,99902.33
2022-08-01T14:48:57.551Z,99903.58
2022-08-01T14:51:25.884Z,99898.41
2022-08-01T14:53:57.953Z,99905.09
2022-08-01T14:56:26.006Z,99903.10
2022-08-01T14:58:56.032Z,99905.90
2022-08-01T15:01:27.063Z,99905.09
2022-08-01T15:03:56.604Z,99901.68
2022-08-01T15:06:25.495Z,99902.60
2022-08-01T15:08:53.663Z,99901.77
2022-08-01T15:11:22.631Z,99902.58
2022-08-01T15:14:12.258Z,99904.95
2022-08-01T15:16:44.248Z,99898.79
2022-08-01T15:19:12.068Z,99903.69
2022-08-01T15:21:41.894Z,99902.93
2022-08-01T15:24:11.209Z,99900.63
2022-08-01T15:26:42.132Z,99901.48
2022-08-01T15:29:12.815Z,99900.14
2022-08-01T15:31:42.760Z,99895.70
2022-08-01T15:34:10.422Z,99900.53
2022-08-01T15:36:41.975Z,99898.50
2022-08-01T15:39:13.548Z,99896.11
2022-08-01T15:41:42.001Z,99893.19
2022-08-01T15:44:11.043Z,99890.56
2022-08-01T15:46:39.544Z,99889.80
2022-08-01T15:49:08.486Z,99889.10
2022-08-01T15:51:38.343Z,99889.01
2022-08-01T15:54:15.932Z,99895.11
2022-08-01T15:56:49.301Z,99896.15
2022-08-01T15:59:29.174Z,99895.28
2022-08-01T16:02:12.683Z,99898.29
2022-08-01T16:04:50.951Z,99899.71
2022-08-01T16:07:22.931Z,99906.91
2022-08-01T16:09:56.831Z,99901.42
2022-08-01T16:12:25.973Z,99903.09
2022-08-01T16:15:00.497Z,99908.49
2022-08-01T16:17:32.798Z,99905.96
2022-08-01T16:20:08.485Z,99910.85
2022-08-01T16:22:47.940Z,99906.05
2022-08-01T16:25:25.669Z,99909.98
2022-08-01T16:27:58.125Z,99907.95
2022-08-01T16:30:37.387Z,99907.37
2022-08-01T16:33:45.592Z,99913.01
2022-08-01T16:36:16.906Z,99916.45
2022-08-01T16:38:48.347Z,99919.31
2022-08-01T16:41:20.353Z,99918.06
2022-08-01T16:44:26.725Z,99914.58
2022-08-01T16:47:35.654Z,99917.06
2022-08-01T16:50:41.553Z,99922.88
2022-08-01T16:53:16.345Z,99923.44
2022-08-01T16:55:50.488Z,99924.85
2022-08-01T16:58:38.255Z,99924.42
2022-08-01T17:01:57.942Z,99930.55
2022-08-01T17:04:01.509Z,99922.11
2022-08-01T17:06:36.716Z,99920.91
2022-08-01T17:09:16.785Z,99924.29
2022-08-01T17:11:44.615Z,99924.36
2022-08-01T17:14:33.888Z,99926.31
2022-08-01T17:17:02.503Z,99922.42
2022-08-01T17:19:35.061Z,99923.89
2022-08-01T17:22:04.494Z,99927.60
2022-08-01T17:24:44.954Z,99927.23
2022-08-01T17:27:14.491Z,99931.74
2022-08-01T17:29:44.664Z,99931.80
2022-08-01T17:32:28.166Z,99930.45
2022-08-01T17:35:05.646Z,99934.09
2022-08-01T17:37:35.189Z,99940.63
2022-08-01T17:40:14.034Z,99939.85
2022-08-01T17:43:21.798Z,99945.23
2022-08-01T17:45:52.937Z,99951.27
2022-08-01T17:48:25.520Z,99955.23
2022-08-01T17:51:13.788Z,99952.14
2022-08-01T17:56:59.331Z,99951.20
2022-08-01T18:00:47.932Z,99950.91
2022-08-01T19:53:24.147Z,100036.44
2022-08-01T19:56:49.758Z,100034.16
2022-08-01T20:50:52.345Z,100051.50
2022-08-01T21:13:21.359Z,100054.10
2022-08-01T21:20:38.126Z,100056.31
2022-08-01T21:24:12.831Z,100058.65
2022-08-01T22:21:41.306Z,100088.48
2022-08-01T22:24:13.147Z,100089.14
2022-08-01T22:30:30.908Z,100097.06
2022-08-01T22:36:04.658Z,100098.17
2022-08-01T22:38:34.806Z,100100.80
2022-08-01T22:42:17.518Z,100105.33
2022-08-01T22:45:06.024Z,100107.40
2022-08-01T22:48:26.300Z,100110.64
2022-08-01T22:52:11.717Z,100110.10
2022-08-01T22:55:57.879Z,100103.31
2022-08-01T22:59:19.682Z,100113.11
2022-08-01T23:03:07.594Z,100115.95
2022-08-01T23:06:20.412Z,100113.42
2022-08-01T23:08:56.793Z,100114.31
2022-08-01T23:12:36.265Z,100116.40
2022-08-01T23:15:31.875Z,100115.13
2022-08-01T23:18:06.486Z,100113.38
2022-08-01T23:20:39.236Z,100113.56
2022-08-01T23:23:17.958Z,100114.58
2022-08-01T23:40:33.147Z,100116.61
2022-08-01T23:50:50.631Z,100117.52
2022-08-01T23:54:55.639Z,100116.70
2022-08-01T23:58:51.456Z,100116.98
